Time;durP1;ratioP1;P1;durP2;ratioP2;P2;SDS_P1;SDS_P2;PMS_P1;PMS_P2;Temp;Humidity;BMP_temperature;BMP_pressure;BME280_temperature;BME280_humidity;BME280_pressure;Samples;Min_cycle;Max_cycle;Signal;HPM_P1;HPM_P2
2023/04/25 00:00:53;;;;;;;45.78;4.85;;;;;;;7.35;73.87;95652.59;5091457;28;20528;-73
2023/04/25 00:03:19;;;;;;;19.30;3.25;;;;;;;7.33;74.15;95655.63;5091298;28;20128;-73
2023/04/25 00:05:47;;;;;;;37.67;4.30;;;;;;;7.42;74.16;95652.16;5091368;28;20051;-73
2023/04/25 00:08:14;;;;;;;32.08;3.55;;;;;;;7.45;74.67;95663.16;5091307;28;20514;-73
2023/04/25 00:10:40;;;;;;;30.35;3.50;;;;;;;7.42;74.64;95658.38;5091575;28;20059;-73
2023/04/25 00:13:08;;;;;;;57.67;5.00;;;;;;;7.35;75.34;95658.03;5090926;28;20047;-73
2023/04/25 00:15:35;;;;;;;16.77;2.88;;;;;;;7.41;75.28;95662.19;5091659;28;20468;-73
2023/04/25 00:18:02;;;;;;;24.60;3.85;;;;;;;7.35;75.76;95659.94;5091291;28;20044;-73
2023/04/25 00:20:29;;;;;;;16.90;3.05;;;;;;;7.34;75.98;95656.44;5091720;28;20051;-73
2023/04/25 00:22:58;;;;;;;36.88;4.72;;;;;;;7.34;76.20;95656.44;5091497;28;20063;-73
2023/04/25 00:25:26;;;;;;;27.20;3.47;;;;;;;7.34;76.62;95645.59;5091024;28;20043;-73
2023/04/25 00:27:52;;;;;;;44.72;4.93;;;;;;;7.39;76.47;95647.38;5091057;28;20519;-73
2023/04/25 00:30:19;;;;;;;25.20;3.63;;;;;;;7.48;77.10;95649.00;5090785;28;20039;-73
2023/04/25 00:32:45;;;;;;;25.67;3.85;;;;;;;7.53;77.41;95643.44;5091086;28;20048;-73
2023/04/25 00:35:12;;;;;;;26.27;3.85;;;;;;;7.57;77.05;95643.59;5090564;28;20127;-73
2023/04/25 00:37:38;;;;;;;12.50;2.95;;;;;;;7.58;76.90;95656.03;5091362;28;20682;-73
2023/04/25 00:40:08;;;;;;;24.83;4.35;;;;;;;7.54;77.00;95655.84;5090469;28;20036;-74
2023/04/25 00:42:36;;;;;;;22.88;4.00;;;;;;;7.38;77.63;95652.00;5090774;28;20040;-73
2023/04/25 00:45:06;;;;;;;26.45;4.28;;;;;;;7.32;77.99;95658.66;5090108;28;20123;-74
2023/04/25 00:47:33;;;;;;;19.67;3.85;;;;;;;7.01;80.17;95654.09;5091056;28;20044;-73
2023/04/25 00:50:00;;;;;;;30.70;4.07;;;;;;;6.84;81.35;95648.59;5090895;28;20044;-73
2023/04/25 00:52:26;;;;;;;24.58;3.95;;;;;;;6.80;82.17;95647.63;5090323;28;20095;-73
2023/04/25 00:54:53;;;;;;;21.08;4.68;;;;;;;6.84;81.99;95643.19;5090736;28;20052;-73
2023/04/25 00:57:21;;;;;;;21.45;3.97;;;;;;;6.86;81.90;95651.00;5090387;28;20040;-73
2023/04/25 00:59:47;;;;;;;26.35;4.80;;;;;;;6.89;82.10;95648.47;5091071;28;20047;-73
2023/04/25 01:02:14;;;;;;;17.92;3.75;;;;;;;7.07;81.30;95636.59;5090111;28;20041;-73
2023/04/25 01:04:40;;;;;;;28.13;3.90;;;;;;;6.97;81.53;95626.03;5091801;28;20048;-73
2023/04/25 01:07:08;;;;;;;24.70;3.75;;;;;;;6.88;82.11;95627.13;5092328;28;20059;-74
2023/04/25 01:09:34;;;;;;;32.33;4.38;;;;;;;6.76;82.36;95635.81;5091950;28;20468;-73
2023/04/25 01:12:01;;;;;;;32.95;4.53;;;;;;;6.69;83.18;95640.88;5092074;28;20070;-74
2023/04/25 01:14:29;;;;;;;28.83;4.18;;;;;;;6.61;84.39;95644.31;5092044;28;20040;-73
2023/04/25 01:16:56;;;;;;;54.97;5.25;;;;;;;6.58;84.09;95639.53;5091763;28;20097;-73
2023/04/25 01:19:24;;;;;;;38.47;4.18;;;;;;;6.50;84.55;95639.19;5090190;28;20055;-73
2023/04/25 01:21:52;;;;;;;44.70;4.50;;;;;;;6.58;84.82;95636.81;5090432;28;20059;-73
2023/04/25 01:24:19;;;;;;;22.30;3.63;;;;;;;6.53;84.66;95641.28;5089652;28;20089;-73
2023/04/25 01:26:49;;;;;;;38.80;5.13;;;;;;;6.52;84.85;95636.97;5089996;28;20044;-73
2023/04/25 01:29:16;;;;;;;25.83;4.10;;;;;;;6.54;84.80;95640.16;5089867;28;20042;-72
2023/04/25 01:31:43;;;;;;;20.50;3.83;;;;;;;6.55;85.02;95635.53;5089952;28;20052;-73
2023/04/25 01:34:10;;;;;;;35.10;4.70;;;;;;;6.61;84.35;95636.22;5089499;28;20419;-73
2023/04/25 01:36:36;;;;;;;49.05;4.50;;;;;;;6.71;84.20;95634.03;5090327;28;20066;-73
2023/04/25 01:39:04;;;;;;;26.90;3.53;;;;;;;6.70;83.69;95637.84;5090210;28;20250;-74
2023/04/25 01:41:31;;;;;;;56.85;4.80;;;;;;;6.79;83.55;95629.78;5089959;28;20123;-72
2023/04/25 01:43:57;;;;;;;49.17;4.30;;;;;;;6.85;83.33;95628.53;5089936;28;20052;-72
2023/04/25 01:46:24;;;;;;;22.27;3.72;;;;;;;6.83;82.71;95629.94;5089343;28;20036;-74
2023/04/25 01:48:51;;;;;;;46.10;4.78;;;;;;;6.80;83.22;95629.47;5089656;28;20398;-72
2023/04/25 01:51:18;;;;;;;34.35;4.65;;;;;;;6.79;82.52;95627.09;5089356;28;20044;-72
2023/04/25 01:53:45;;;;;;;27.05;3.60;;;;;;;6.94;82.02;95632.09;5089864;28;20043;-72
2023/04/25 01:56:13;;;;;;;22.13;3.67;;;;;;;6.94;81.73;95632.09;5089331;28;20040;-72
2023/04/25 01:58:39;;;;;;;33.58;4.43;;;;;;;6.83;81.87;95630.75;5089963;28;20048;-72
2023/04/25 02:01:05;;;;;;;11.98;2.90;;;;;;;6.78;82.31;95622.75;5089165;28;20040;-71
2023/04/25 02:03:33;;;;;;;39.50;3.95;;;;;;;6.93;81.76;95624.28;5089576;28;20040;-72
2023/04/25 02:05:59;;;;;;;32.70;4.15;;;;;;;6.96;81.37;95624.44;5089671;28;20076;-72
2023/04/25 02:08:26;;;;;;;22.42;3.65;;;;;;;6.99;81.53;95621.09;5089295;28;20052;-72
2023/04/25 02:10:53;;;;;;;40.38;4.82;;;;;;;7.00;81.95;95620.00;5089550;28;20052;-72
2023/04/25 02:13:20;;;;;;;16.05;3.70;;;;;;;7.01;82.62;95627.03;5089006;28;20383;-72
2023/04/25 02:15:47;;;;;;;30.30;4.57;;;;;;;7.01;82.28;95618.91;5089553;28;20040;-72
2023/04/25 02:18:15;;;;;;;17.35;3.22;;;;;;;6.99;82.28;95618.41;5089143;28;20051;-72
2023/04/25 02:20:42;;;;;;;34.72;4.30;;;;;;;6.99;82.67;95618.41;5089525;28;20063;-73
2023/04/25 02:23:08;;;;;;;39.67;4.35;;;;;;;6.99;83.15;95623.81;5089103;28;20066;-75
2023/04/25 02:25:35;;;;;;;35.42;4.78;;;;;;;6.99;83.16;95626.50;5089641;28;20048;-72
2023/04/25 02:28:01;;;;;;;35.53;4.68;;;;;;;7.01;82.88;95615.41;5089786;28;20048;-72
2023/04/25 02:30:29;;;;;;;40.05;4.45;;;;;;;7.02;83.07;95612.38;5089846;28;20445;-72
2023/04/25 02:32:56;;;;;;;52.45;4.88;;;;;;;7.02;83.10;95612.38;5089337;28;20109;-72
2023/04/25 02:35:22;;;;;;;27.70;4.47;;;;;;;6.99;83.13;95612.19;5089269;28;20425;-72
2023/04/25 02:37:49;;;;;;;33.95;3.78;;;;;;;6.98;83.02;95599.78;5089648;28;20044;-72
2023/04/25 02:40:16;;;;;;;30.67;3.65;;;;;;;6.98;82.99;95595.16;5089463;28;20456;-72
2023/04/25 02:42:42;;;;;;;33.80;4.13;;;;;;;6.96;83.05;95602.78;5089719;28;20048;-72
2023/04/25 02:45:10;;;;;;;37.70;3.97;;;;;;;6.93;83.25;95603.41;5087427;28;20600;-72
2023/04/25 02:47:37;;;;;;;33.47;4.05;;;;;;;6.93;83.16;95599.91;5089374;28;20052;-72
2023/04/25 02:50:05;;;;;;;29.05;3.70;;;;;;;6.94;82.75;95599.63;5088747;28;20052;-72
2023/04/25 02:52:31;;;;;;;34.85;4.32;;;;;;;6.97;83.26;95603.59;5092117;28;20040;-72
2023/04/25 02:54:58;;;;;;;54.03;4.90;;;;;;;6.97;83.54;95604.38;5092856;28;20048;-72
2023/04/25 02:57:24;;;;;;;29.85;3.65;;;;;;;6.94;83.45;95605.03;5092747;28;20040;-72
2023/04/25 02:59:51;;;;;;;38.40;4.43;;;;;;;6.82;82.84;95602.09;5092954;28;20048;-73
2023/04/25 03:02:17;;;;;;;32.65;4.45;;;;;;;6.69;82.41;95597.59;5092288;28;20403;-73
2023/04/25 03:04:45;;;;;;;28.13;3.83;;;;;;;6.79;82.38;95592.72;5093012;28;20044;-72
2023/04/25 03:07:12;;;;;;;47.25;4.43;;;;;;;6.88;81.73;95586.50;5092401;28;20502;-72
2023/04/25 03:09:38;;;;;;;33.60;3.85;;;;;;;6.94;81.55;95583.38;5092988;28;20048;-73
2023/04/25 03:12:05;;;;;;;23.08;4.20;;;;;;;7.00;82.18;95590.25;5092182;28;20055;-72
2023/04/25 03:14:32;;;;;;;31.80;4.20;;;;;;;6.99;82.38;95594.03;5092768;28;20051;-71
2023/04/25 03:16:58;;;;;;;33.05;4.22;;;;;;;7.05;81.64;95594.72;5092733;28;20059;-72
2023/04/25 03:19:25;;;;;;;41.85;4.03;;;;;;;7.12;81.35;95588.84;5092459;28;20498;-72
2023/04/25 03:21:53;;;;;;;48.28;4.40;;;;;;;7.13;81.13;95579.59;5092655;28;20101;-72
2023/04/25 03:24:20;;;;;;;33.45;4.10;;;;;;;7.21;80.18;95581.53;5092262;28;20399;-72
2023/04/25 03:26:46;;;;;;;43.38;4.35;;;;;;;7.20;80.76;95575.31;5092274;28;20414;-73
2023/04/25 03:29:13;;;;;;;43.03;4.65;;;;;;;7.22;80.56;95585.84;5092314;28;20040;-72
2023/04/25 03:31:39;;;;;;;54.67;4.95;;;;;;;7.21;80.48;95585.03;5092910;28;20052;-72
2023/04/25 03:34:06;;;;;;;48.80;4.63;;;;;;;6.91;79.63;95589.41;5092114;28;20388;-73
2023/04/25 03:36:32;;;;;;;28.25;3.97;;;;;;;6.90;79.56;95587.81;5092879;28;20042;-73
2023/04/25 03:39:00;;;;;;;34.75;4.15;;;;;;;6.79;79.51;95576.47;5092900;28;20056;-73
2023/04/25 03:41:27;;;;;;;42.97;4.13;;;;;;;6.71;80.28;95585.34;5092398;28;20098;-72
2023/04/25 03:43:54;;;;;;;33.83;4.05;;;;;;;6.74;80.16;95584.72;5092941;28;20044;-73
2023/04/25 03:46:20;;;;;;;38.55;3.90;;;;;;;6.69;80.54;95584.88;5092115;28;20466;-72
2023/04/25 03:48:46;;;;;;;39.00;4.57;;;;;;;6.64;80.54;95585.00;5092373;28;20044;-73
2023/04/25 03:51:13;;;;;;;43.78;4.25;;;;;;;6.68;80.99;95587.84;5091962;28;20051;-73
2023/04/25 03:53:39;;;;;;;22.15;3.15;;;;;;;6.69;82.13;95592.19;5092770;28;20044;-73
2023/04/25 03:56:08;;;;;;;47.75;5.18;;;;;;;6.52;83.15;95582.88;5092133;28;20047;-72
2023/04/25 03:58:34;;;;;;;26.63;4.40;;;;;;;6.31;84.93;95589.91;5092888;28;20056;-73
2023/04/25 04:01:02;;;;;;;55.53;5.35;;;;;;;6.26;85.64;95588.16;5092781;28;20070;-73
2023/04/25 04:03:29;;;;;;;33.67;4.68;;;;;;;6.25;87.72;95589.22;5092525;28;20044;-73
2023/04/25 04:05:55;;;;;;;41.65;4.65;;;;;;;6.18;88.23;95594.28;5093071;28;20051;-73
2023/04/25 04:08:22;;;;;;;25.13;3.78;;;;;;;6.22;88.28;95589.06;5092964;28;20063;-73
2023/04/25 04:10:48;;;;;;;44.10;5.05;;;;;;;6.23;88.09;95593.38;5091276;28;20048;-73
2023/04/25 04:13:16;;;;;;;21.58;4.03;;;;;;;6.16;86.99;95579.47;5091856;28;20051;-73
2023/04/25 04:15:42;;;;;;;39.60;4.85;;;;;;;6.23;87.46;95582.53;5093060;28;20047;-72
2023/04/25 04:18:09;;;;;;;25.90;4.13;;;;;;;6.16;87.30;95579.47;5091353;28;20054;-72
2023/04/25 04:20:36;;;;;;;39.20;4.40;;;;;;;6.15;87.48;95588.69;5091761;28;20079;-72
2023/04/25 04:23:02;;;;;;;56.88;5.25;;;;;;;6.32;86.88;95596.09;5090895;28;20082;-73
2023/04/25 04:25:29;;;;;;;30.20;4.65;;;;;;;6.22;87.00;95589.06;5091177;28;20044;-72
2023/04/25 04:27:56;;;;;;;49.53;5.40;;;;;;;6.23;86.61;95596.06;5091100;28;20052;-72
2023/04/25 04:30:25;;;;;;;32.65;4.47;;;;;;;6.24;86.97;95592.25;5091101;28;20044;-73
2023/04/25 04:32:52;;;;;;;40.58;4.65;;;;;;;6.37;85.68;95588.69;5091199;28;20392;-72
2023/04/25 04:35:18;;;;;;;26.95;4.57;;;;;;;6.24;85.73;95586.84;5090858;28;20040;-72
2023/04/25 04:37:45;;;;;;;24.20;3.65;;;;;;;6.27;85.60;95580.81;5091434;28;20048;-73
2023/04/25 04:40:15;;;;;;;29.58;4.05;;;;;;;6.31;84.23;95598.00;5090519;28;20040;-72
2023/04/25 04:42:41;;;;;;;38.40;4.28;;;;;;;6.26;86.91;95590.03;5091261;28;20533;-72
2023/04/25 04:45:08;;;;;;;35.05;4.25;;;;;;;6.09;88.49;95587.22;5090590;28;20497;-73
2023/04/25 04:47:36;;;;;;;36.67;4.20;;;;;;;5.94;89.62;95583.78;5091852;28;20445;-72
2023/04/25 04:50:03;;;;;;;35.05;4.35;;;;;;;5.85;91.31;95585.59;5091378;28;20044;-73
2023/04/25 04:52:30;;;;;;;24.00;4.10;;;;;;;5.85;92.58;95585.59;5091475;28;20062;-72
2023/04/25 04:54:56;;;;;;;31.25;4.80;;;;;;;5.81;93.58;95598.13;5090119;28;20055;-73
2023/04/25 04:57:23;;;;;;;16.80;3.80;;;;;;;5.88;93.73;95595.78;5090986;28;20299;-73
2023/04/25 04:59:50;;;;;;;29.52;4.28;;;;;;;5.78;92.39;95589.81;5091374;28;20491;-72
2023/04/25 05:02:16;;;;;;;17.15;4.70;;;;;;;5.74;92.40;95584.22;5090648;28;20047;-72
2023/04/25 05:04:44;;;;;;;25.58;4.35;;;;;;;5.77;92.94;95583.63;5091340;28;20494;-72
2023/04/25 05:07:11;;;;;;;24.23;4.00;;;;;;;5.84;92.07;95600.19;5090124;28;20070;-72
2023/04/25 05:09:37;;;;;;;28.67;4.43;;;;;;;5.86;91.71;95592.59;5090661;28;20087;-73
2023/04/25 05:12:04;;;;;;;19.25;3.63;;;;;;;5.88;90.94;95595.78;5090115;28;20044;-72
2023/04/25 05:14:31;;;;;;;21.50;3.92;;;;;;;5.95;89.18;95589.97;5090092;28;20051;-72
2023/04/25 05:16:58;;;;;;;19.30;3.75;;;;;;;5.94;88.86;95597.28;5090567;28;20051;-75
2023/04/25 05:19:24;;;;;;;20.98;3.20;;;;;;;6.03;87.77;95591.16;5091037;28;20064;-77
2023/04/25 05:21:52;;;;;;;21.58;3.47;;;;;;;6.06;87.02;95579.75;5090975;28;20047;-77
2023/04/25 05:24:19;;;;;;;19.63;3.40;;;;;;;6.09;85.76;95577.19;5089916;28;20043;-72
2023/04/25 05:26:45;;;;;;;10.20;2.88;;;;;;;6.18;85.42;95577.28;5090496;28;20071;-73
2023/04/25 05:29:12;;;;;;;6.70;3.03;;;;;;;6.26;84.42;95579.22;5089933;28;20047;-72
2023/04/25 05:31:39;;;;;;;8.52;3.35;;;;;;;6.35;84.68;95581.97;5090343;28;20055;-73
2023/04/25 05:34:05;;;;;;;22.52;3.53;;;;;;;6.35;84.18;95585.47;5089428;28;20052;-72
2023/04/25 05:36:32;;;;;;;18.67;3.28;;;;;;;6.50;84.55;95581.59;5090290;28;20036;-73
2023/04/25 05:39:00;;;;;;;22.98;3.85;;;;;;;6.56;85.83;95574.13;5090555;28;20044;-73
2023/04/25 05:41:26;;;;;;;28.25;3.90;;;;;;;6.66;84.97;95571.94;5089684;28;20043;-73
2023/04/25 05:43:53;;;;;;;19.00;4.03;;;;;;;6.59;83.67;95576.22;5089793;28;20044;-72
2023/04/25 05:46:19;;;;;;;9.88;3.10;;;;;;;6.51;82.65;95575.84;5089933;28;20087;-73
2023/04/25 05:48:46;;;;;;;17.30;3.35;;;;;;;6.52;83.01;95577.47;5090203;28;20101;-73
2023/04/25 05:51:12;;;;;;;17.70;3.55;;;;;;;6.51;82.66;95583.97;5089425;28;20052;-72
2023/04/25 05:53:39;;;;;;;11.82;2.90;;;;;;;6.57;82.91;95578.44;5090155;28;20044;-73
2023/04/25 05:56:07;;;;;;;25.80;3.83;;;;;;;6.55;83.24;95578.75;5089539;28;20052;-73
2023/04/25 05:58:33;;;;;;;18.33;3.35;;;;;;;6.64;82.35;95579.59;5090249;28;20044;-72
2023/04/25 06:01:00;;;;;;;33.72;4.55;;;;;;;6.75;82.60;95582.81;5090488;28;20052;-72
2023/04/25 06:03:26;;;;;;;19.58;3.33;;;;;;;6.71;82.13;95585.34;5089536;28;20686;-73
2023/04/25 06:05:53;;;;;;;15.93;3.22;;;;;;;6.76;82.76;95582.50;5090505;28;20105;-72
2023/04/25 06:08:19;;;;;;;21.35;3.47;;;;;;;6.80;83.17;95583.47;5089562;28;20472;-73
2023/04/25 06:10:46;;;;;;;10.77;3.83;;;;;;;6.78;82.73;95585.69;5090116;28;20055;-73
2023/04/25 06:13:13;;;;;;;20.35;3.78;;;;;;;6.83;83.31;95583.94;5089864;28;20123;-73
2023/04/25 06:15:40;;;;;;;20.05;3.42;;;;;;;6.78;82.04;95585.69;5090509;28;20044;-73
2023/04/25 06:18:07;;;;;;;22.65;3.80;;;;;;;6.82;82.36;95585.84;5090874;28;20051;-73
2023/04/25 06:20:34;;;;;;;10.23;2.97;;;;;;;6.99;83.53;95591.31;5094869;28;20044;-73
2023/04/25 06:23:00;;;;;;;25.92;4.35;;;;;;;6.87;83.12;95588.44;5096706;28;20045;-73
2023/04/25 06:25:27;;;;;;;19.63;3.78;;;;;;;6.83;82.57;95598.28;5093644;28;20040;-73
2023/04/25 06:27:53;;;;;;;22.65;3.80;;;;;;;6.78;83.92;95595.69;5097268;28;20048;-73
2023/04/25 06:30:25;;;;;;;17.10;3.80;;;;;;;6.82;83.99;95593.19;5096651;28;20044;-73
2023/04/25 06:32:52;;;;;;;17.00;3.97;;;;;;;6.53;83.23;95595.28;5095506;28;20517;-73
2023/04/25 06:35:19;;;;;;;9.85;3.30;;;;;;;6.28;87.07;95601.34;5095020;28;20123;-73
2023/04/25 06:37:45;;;;;;;21.00;4.22;;;;;;;5.91;90.89;95595.22;5096044;28;20048;-73
2023/04/25 06:40:12;;;;;;;19.27;4.25;;;;;;;5.70;94.44;95604.88;5094493;28;20047;-73
2023/04/25 06:42:38;;;;;;;8.77;3.15;;;;;;;5.43;96.59;95600.34;5095604;28;20052;-73
2023/04/25 06:45:05;;;;;;;16.58;3.97;;;;;;;5.40;97.33;95599.03;5093981;28;20055;-73
2023/04/25 06:47:33;;;;;;;13.15;3.33;;;;;;;5.10;98.08;95594.25;5095954;28;20044;-74
2023/04/25 06:49:59;;;;;;;12.20;3.50;;;;;;;4.89;100.00;95605.47;5095390;28;20043;-73
2023/04/25 06:52:26;;;;;;;17.48;4.20;;;;;;;4.74;100.00;95594.97;5098413;28;20047;-73
2023/04/25 06:54:52;;;;;;;12.80;4.10;;;;;;;4.65;100.00;95602.19;5100320;28;20047;-73
2023/04/25 06:57:19;;;;;;;17.05;4.85;;;;;;;4.69;100.00;95609.34;5099190;28;20043;-74
2023/04/25 06:59:45;;;;;;;16.23;4.65;;;;;;;4.69;100.00;95613.94;5098691;28;20056;-73
2023/04/25 07:02:12;;;;;;;15.23;4.70;;;;;;;4.68;100.00;95612.34;5097082;28;20044;-74
2023/04/25 07:04:40;;;;;;;10.63;4.30;;;;;;;4.75;100.00;95615.47;5097173;28;20051;-74
2023/04/25 07:07:06;;;;;;;11.82;4.50;;;;;;;4.68;100.00;95607.75;5097644;28;20532;-74
2023/04/25 07:09:33;;;;;;;11.52;4.32;;;;;;;4.69;100.00;95611.25;5097635;28;20047;-73
2023/04/25 07:12:01;;;;;;;7.13;3.95;;;;;;;4.74;100.00;95608.44;5097101;28;20047;-73
2023/04/25 07:14:27;;;;;;;9.50;4.45;;;;;;;4.73;100.00;95609.56;5091184;28;20047;-74
2023/04/25 07:16:55;;;;;;;9.90;4.53;;;;;;;4.72;100.00;95608.75;5102048;28;20055;-73
2023/04/25 07:19:23;;;;;;;9.35;4.90;;;;;;;4.91;100.00;95605.19;5099791;28;20108;-73
2023/04/25 07:21:51;;;;;;;11.35;4.85;;;;;;;4.91;100.00;95608.69;5100347;28;20072;-74
2023/04/25 07:24:17;;;;;;;14.32;5.75;;;;;;;5.00;100.00;95613.34;5098560;28;20048;-74
2023/04/25 07:26:44;;;;;;;11.35;5.57;;;;;;;5.17;100.00;95613.56;5100433;28;20044;-74
2023/04/25 07:29:11;;;;;;;14.40;5.25;;;;;;;5.21;100.00;95609.16;5099793;28;20044;-73
2023/04/25 07:31:37;;;;;;;14.30;5.90;;;;;;;5.25;100.00;95604.75;5100923;28;20044;-74
2023/04/25 07:34:04;;;;;;;15.48;5.57;;;;;;;5.31;100.00;95602.72;5099216;28;20487;-73
2023/04/25 07:36:30;;;;;;;12.77;5.50;;;;;;;5.37;100.00;95599.63;5097880;28;20043;-73
2023/04/25 07:38:58;;;;;;;15.70;6.50;;;;;;;5.54;100.00;95607.09;5093817;28;20423;-74
2023/04/25 07:41:25;;;;;;;9.43;5.18;;;;;;;5.53;100.00;95600.09;5092069;28;20511;-74
2023/04/25 07:43:51;;;;;;;7.10;4.85;;;;;;;5.56;100.00;95593.28;5092615;28;20052;-73
2023/04/25 07:46:17;;;;;;;8.35;5.10;;;;;;;5.77;100.00;95599.81;5091736;28;20047;-73
2023/04/25 07:48:44;;;;;;;11.45;5.45;;;;;;;5.89;100.00;95602.78;5092252;28;20067;-74
2023/04/25 07:51:10;;;;;;;16.50;5.88;;;;;;;6.05;100.00;95597.03;5091725;28;20554;-73
2023/04/25 07:53:37;;;;;;;19.98;6.18;;;;;;;5.98;100.00;95603.69;5092150;28;20043;-74
2023/04/25 07:56:05;;;;;;;22.60;6.30;;;;;;;5.99;100.00;95599.06;5091689;28;20070;-74
2023/04/25 07:58:32;;;;;;;19.55;5.55;;;;;;;6.04;100.00;95598.16;5092482;28;20040;-73
2023/04/25 08:00:58;;;;;;;33.63;8.18;;;;;;;6.04;100.00;95598.16;5092009;28;20047;-74
2023/04/25 08:03:25;;;;;;;15.15;5.88;;;;;;;6.16;100.00;95591.09;5091517;28;20036;-74
2023/04/25 08:05:51;;;;;;;17.25;5.80;;;;;;;6.09;100.00;95590.72;5092705;28;20044;-74
2023/04/25 08:08:18;;;;;;;12.05;5.35;;;;;;;6.23;100.00;95591.44;5092045;28;20047;-73
2023/04/25 08:10:44;;;;;;;15.88;5.00;;;;;;;6.28;100.00;95601.34;5090944;28;20044;-74
2023/04/25 08:13:12;;;;;;;23.25;5.28;;;;;;;6.39;100.00;95602.69;5090844;28;20040;-73
2023/04/25 08:15:39;;;;;;;26.42;5.10;;;;;;;6.70;100.00;95593.78;5091971;28;20066;-73
2023/04/25 08:18:05;;;;;;;11.40;4.45;;;;;;;6.75;100.00;95596.34;5091464;28;20056;-73
2023/04/25 08:20:32;;;;;;;11.10;3.58;;;;;;;6.84;95.08;95594.47;5091575;28;20452;-74
2023/04/25 08:22:58;;;;;;;16.73;4.47;;;;;;;7.17;97.64;95603.03;5091300;28;20059;-74
2023/04/25 08:25:25;;;;;;;9.85;3.17;;;;;;;8.07;87.83;95597.84;5089980;28;20040;-73
2023/04/25 08:27:51;;;;;;;14.05;3.83;;;;;;;9.33;80.26;95587.59;5091322;28;20054;-74
2023/04/25 08:30:19;;;;;;;18.92;5.00;;;;;;;10.80;78.92;95589.09;5089783;28;20052;-74
2023/04/25 08:32:45;;;;;;;7.63;3.33;;;;;;;10.85;75.69;95591.59;5091093;28;20126;-74
2023/04/25 08:35:12;;;;;;;9.70;3.30;;;;;;;11.12;77.01;95595.63;5090843;28;20048;-74
2023/04/25 08:37:38;;;;;;;11.38;3.03;;;;;;;11.52;68.63;95592.22;5091235;28;20075;-73
2023/04/25 08:40:06;;;;;;;12.18;4.10;;;;;;;11.54;71.18;95592.69;5091217;28;20507;-73
2023/04/25 08:42:35;;;;;;;9.85;3.33;;;;;;;11.54;69.62;95589.94;5091215;28;20059;-74
2023/04/25 08:45:02;;;;;;;6.65;3.40;;;;;;;11.71;69.15;95597.88;5091188;28;20074;-74
2023/04/25 08:47:30;;;;;;;7.88;2.88;;;;;;;12.22;66.59;95597.44;5091008;28;20036;-73
2023/04/25 08:49:57;;;;;;;5.75;3.17;;;;;;;11.96;73.60;95595.13;5090328;28;20055;-73
2023/04/25 08:52:24;;;;;;;5.40;3.65;;;;;;;12.63;71.22;95598.16;5090241;28;20044;-74
2023/04/25 08:54:53;;;;;;;6.60;2.78;;;;;;;12.41;66.29;95594.84;5091050;28;20044;-73
2023/04/25 08:57:20;;;;;;;4.25;2.90;;;;;;;11.70;63.55;95593.56;5090667;28;20713;-73
2023/04/25 08:59:48;;;;;;;7.47;2.97;;;;;;;10.82;69.59;95591.50;5090990;28;20052;-73
2023/04/25 09:02:16;;;;;;;6.72;2.72;;;;;;;10.45;70.55;95586.75;5090023;28;20559;-73
2023/04/25 09:04:45;;;;;;;12.77;3.60;;;;;;;10.55;70.29;95580.09;5090628;28;20040;-73
2023/04/25 09:07:11;;;;;;;22.00;4.90;;;;;;;10.46;74.17;95579.41;5089926;28;20048;-73
2023/04/25 09:09:39;;;;;;;15.95;4.32;;;;;;;10.26;72.21;95582.94;5090576;28;20051;-73
2023/04/25 09:12:06;;;;;;;11.40;3.65;;;;;;;9.92;75.23;95577.47;5090173;28;20047;-74
2023/04/25 09:14:32;;;;;;;19.35;3.90;;;;;;;9.83;74.09;95584.09;5090528;28;20620;-73
2023/04/25 09:17:04;;;;;;;14.95;4.50;;;;;;;9.63;75.48;95575.59;5090891;28;20060;-73
2023/04/25 09:19:32;;;;;;;20.10;4.22;;;;;;;9.27;72.89;95578.06;5090420;28;20495;-72
2023/04/25 09:22:02;;;;;;;7.85;3.72;;;;;;;9.06;74.76;95584.22;5090344;28;20048;-72
2023/04/25 09:24:33;;;;;;;6.65;3.25;;;;;;;9.08;77.89;95592.03;5089972;28;20055;-74
2023/04/25 09:27:01;;;;;;;8.27;3.33;;;;;;;8.94;75.77;95594.19;5090387;28;20048;-73
2023/04/25 09:29:31;;;;;;;8.75;3.38;;;;;;;8.85;82.71;95600.44;5089989;28;20090;-73
2023/04/25 09:32:17;;;;;;;6.55;3.25;;;;;;;8.30;87.28;95605.81;5090088;28;20099;-73
2023/04/25 09:34:47;;;;;;;5.47;2.85;;;;;;;7.77;85.05;95604.22;5089675;28;20086;-73
2023/04/25 09:37:18;;;;;;;6.32;2.92;;;;;;;7.64;87.60;95607.91;5089541;28;20069;-72
2023/04/25 09:39:46;;;;;;;19.00;4.10;;;;;;;7.81;88.25;95605.19;5090554;28;20040;-73
2023/04/25 09:42:12;;;;;;;18.88;3.83;;;;;;;8.47;88.20;95600.41;5089790;28;20075;-73
2023/04/25 09:44:43;;;;;;;13.25;3.53;;;;;;;8.94;84.31;95605.84;5090006;28;20055;-73
2023/04/25 09:47:11;;;;;;;9.35;4.13;;;;;;;9.26;84.01;95604.41;5089585;28;20720;-73
2023/04/25 09:49:40;;;;;;;14.57;3.90;;;;;;;9.56;82.12;95607.94;5090223;28;20067;-73
2023/04/25 09:52:07;;;;;;;12.32;3.83;;;;;;;9.77;75.78;95607.16;5089472;28;20067;-73
2023/04/25 09:54:34;;;;;;;6.82;3.60;;;;;;;9.98;73.80;95602.53;5089856;28;20051;-73
2023/04/25 09:57:11;;;;;;;4.35;2.78;;;;;;;9.82;77.32;95604.25;5090091;28;20052;-73
2023/04/25 09:59:40;;;;;;;15.02;4.13;;;;;;;9.82;77.16;95599.59;5089970;28;20487;-74
2023/04/25 10:02:09;;;;;;;12.88;3.72;;;;;;;10.58;73.82;95586.78;5089573;28;20090;-73
2023/04/25 10:04:36;;;;;;;5.53;2.70;;;;;;;10.62;66.35;95599.41;5089588;28;20506;-73
2023/04/25 10:07:04;;;;;;;15.98;3.13;;;;;;;10.75;68.92;95592.03;5089321;28;20044;-74
2023/04/25 10:09:33;;;;;;;3.00;2.28;;;;;;;10.58;67.25;95593.03;5089829;28;20071;-73
2023/04/25 10:12:01;;;;;;;15.43;3.20;;;;;;;10.25;66.41;95589.53;5089828;28;20406;-73
2023/04/25 10:14:29;;;;;;;18.33;3.58;;;;;;;10.15;66.99;95585.25;5089496;28;20044;-73
2023/04/25 10:16:56;;;;;;;15.85;2.95;;;;;;;10.22;66.58;95582.00;5089782;28;20423;-73
2023/04/25 10:19:23;;;;;;;8.98;2.33;;;;;;;10.10;61.70;95586.25;5089104;28;20040;-73
2023/04/25 10:21:52;;;;;;;14.30;3.53;;;;;;;9.89;65.65;95582.75;5089480;28;20414;-73
2023/04/25 10:24:21;;;;;;;6.35;3.08;;;;;;;9.89;71.00;95594.41;5089005;28;20051;-73
2023/04/25 10:26:48;;;;;;;5.13;3.00;;;;;;;9.72;68.27;95588.34;5089599;28;20048;-73
2023/04/25 10:29:23;;;;;;;5.80;2.58;;;;;;;9.75;68.59;95587.66;5088883;28;20059;-72
2023/04/25 10:31:50;;;;;;;6.15;3.05;;;;;;;9.87;71.18;95587.75;5089566;28;20526;-73
2023/04/25 10:34:16;;;;;;;6.50;2.90;;;;;;;10.55;75.00;95591.00;5088936;28;20453;-73
2023/04/25 10:36:43;;;;;;;4.32;2.50;;;;;;;11.01;67.91;95593.66;5089790;28;20457;-74
2023/04/25 10:39:10;;;;;;;5.78;2.90;;;;;;;10.74;64.00;95589.66;5089452;28;20074;-73
2023/04/25 10:41:54;;;;;;;6.68;2.80;;;;;;;10.77;68.37;95584.34;5089603;28;20044;-74
2023/04/25 10:44:22;;;;;;;6.32;2.70;;;;;;;10.52;66.10;95590.88;5089075;28;20082;-73
2023/04/25 10:46:49;;;;;;;3.80;2.30;;;;;;;10.16;63.65;95593.06;5089484;28;20044;-73
2023/04/25 10:49:30;;;;;;;4.10;2.63;;;;;;;10.30;70.16;95583.88;5088903;28;20071;-73
2023/04/25 10:52:13;;;;;;;5.63;2.60;;;;;;;9.81;75.60;95586.31;5089571;28;20048;-74
2023/04/25 10:54:42;;;;;;;4.70;3.07;;;;;;;9.19;77.88;95587.03;5081214;28;20441;-73
2023/04/25 10:57:08;;;;;;;8.27;3.17;;;;;;;9.01;80.42;95587.13;5089039;28;20289;-73
2023/04/25 10:59:36;;;;;;;5.40;2.78;;;;;;;9.14;82.08;95591.53;5089375;28;20056;-73
2023/04/25 11:02:12;;;;;;;6.30;3.50;;;;;;;9.41;84.29;95587.56;5088740;28;20084;-73
2023/04/25 11:04:41;;;;;;;5.38;2.40;;;;;;;9.81;79.96;95586.31;5089307;28;20048;-74
2023/04/25 11:07:14;;;;;;;3.38;2.15;;;;;;;10.39;78.91;95590.03;5088971;28;20414;-73
2023/04/25 11:09:41;;;;;;;;;;;;;;;10.92;71.54;95585.63;5089882;28;20048;-73
2023/04/25 11:12:08;;;;;;;4.90;1.92;;;;;;;10.84;67.28;95592.75;5090162;28;19954;-73
2023/04/25 11:14:37;;;;;;;2.65;1.85;;;;;;;10.30;66.08;95589.31;5092597;28;20059;-73
2023/04/25 11:17:03;;;;;;;6.47;2.72;;;;;;;9.57;72.56;95606.81;5092671;28;20051;-73
2023/04/25 11:19:30;;;;;;;5.07;3.10;;;;;;;8.43;79.00;95626.56;5092766;28;20039;-73
2023/04/25 11:21:57;;;;;;;6.55;3.00;;;;;;;7.36;89.55;95637.97;5092255;28;20052;-72
2023/04/25 11:24:27;;;;;;;5.20;3.03;;;;;;;7.14;94.98;95636.13;5089772;28;20494;-72
2023/04/25 11:26:54;;;;;;;3.83;2.70;;;;;;;6.96;95.87;95642.59;5092689;28;20047;-72
2023/04/25 11:29:23;;;;;;;5.63;2.67;;;;;;;6.78;94.41;95657.94;5092039;28;20076;-72
2023/04/25 11:31:51;;;;;;;4.28;2.08;;;;;;;6.10;91.28;95661.78;5092650;28;20055;-72
2023/04/25 11:34:18;;;;;;;32.90;4.22;;;;;;;5.10;92.21;95680.63;5091997;28;20052;-73